createdAt,value
2018-12-31T00:02:09.210Z,3.73
2018-12-31T00:04:40.366Z,3.27
2018-12-31T00:07:11.446Z,3.17
2018-12-31T00:09:42.622Z,2.83
2018-12-31T00:12:13.768Z,3.60
2018-12-31T00:14:45.920Z,2.70
2018-12-31T00:17:17.056Z,3.50
2018-12-31T00:19:49.445Z,3.50
2018-12-31T00:22:20.643Z,3.73
2018-12-31T00:24:51.802Z,3.30
2018-12-31T00:27:24.658Z,3.97
2018-12-31T00:29:55.825Z,4.00
2018-12-31T00:32:26.885Z,3.83
2018-12-31T00:34:58.126Z,3.33
2018-12-31T00:37:33.042Z,3.50
2018-12-31T00:40:04.384Z,3.63
2018-12-31T00:42:35.548Z,4.10
2018-12-31T00:45:06.838Z,4.13
2018-12-31T00:47:37.940Z,3.60
2018-12-31T00:50:10.861Z,3.67
2018-12-31T00:52:42.826Z,3.50
2018-12-31T00:55:13.897Z,3.33
2018-12-31T00:57:45.509Z,3.17
2018-12-31T01:00:17.125Z,3.90
2018-12-31T01:02:48.274Z,3.30
2018-12-31T01:05:19.432Z,2.77
2018-12-31T01:07:50.677Z,3.23
2018-12-31T01:10:21.751Z,3.23
2018-12-31T01:12:52.824Z,3.27
2018-12-31T01:15:23.941Z,3.73
2018-12-31T01:17:55.079Z,3.50
2018-12-31T01:20:26.187Z,3.20
2018-12-31T01:22:57.405Z,3.30
2018-12-31T01:25:28.482Z,3.17
2018-12-31T01:27:59.665Z,2.90
2018-12-31T01:30:30.714Z,3.00
2018-12-31T01:33:01.840Z,2.90
2018-12-31T01:35:32.930Z,3.00
2018-12-31T01:38:04.076Z,2.90
2018-12-31T01:40:35.266Z,2.80
2018-12-31T01:43:06.324Z,2.47
2018-12-31T01:45:37.455Z,2.60
2018-12-31T01:48:08.507Z,2.90
2018-12-31T01:50:39.652Z,2.60
2018-12-31T01:53:10.709Z,3.00
2018-12-31T01:55:41.831Z,2.60
2018-12-31T01:58:13.012Z,2.50
2018-12-31T02:00:44.203Z,2.60
2018-12-31T02:03:15.348Z,2.60
2018-12-31T02:05:46.561Z,2.30
2018-12-31T02:08:17.668Z,2.60
2018-12-31T02:10:48.874Z,2.30
2018-12-31T02:13:19.948Z,2.80
2018-12-31T02:15:50.991Z,3.00
2018-12-31T02:18:22.153Z,2.93
2018-12-31T02:20:53.324Z,2.90
2018-12-31T02:23:24.464Z,3.23
2018-12-31T02:25:55.604Z,3.17
2018-12-31T02:28:26.703Z,3.40
2018-12-31T02:30:59.096Z,3.37
2018-12-31T02:33:30.258Z,3.60
2018-12-31T02:36:01.361Z,3.20
2018-12-31T02:38:32.633Z,3.93
2018-12-31T02:41:03.906Z,3.30
2018-12-31T02:43:35.036Z,3.00
2018-12-31T02:46:06.237Z,3.27
2018-12-31T02:48:37.444Z,3.10
2018-12-31T02:51:08.603Z,3.43
2018-12-31T02:53:39.743Z,3.03
2018-12-31T02:56:10.883Z,3.53
2018-12-31T02:58:41.969Z,2.43
2018-12-31T03:01:13.126Z,3.03
2018-12-31T03:03:44.171Z,2.73
2018-12-31T03:06:15.236Z,3.03
2018-12-31T03:08:46.326Z,2.90
2018-12-31T03:11:17.447Z,3.17
2018-12-31T03:13:48.511Z,3.33
2018-12-31T03:16:19.734Z,3.20
2018-12-31T03:18:50.779Z,3.43
2018-12-31T03:21:21.895Z,3.90
2018-12-31T03:23:53.035Z,4.07
2018-12-31T03:26:24.258Z,3.50
2018-12-31T03:28:55.308Z,3.97
2018-12-31T03:31:26.479Z,3.57
2018-12-31T03:33:57.600Z,3.70
2018-12-31T03:36:28.638Z,3.70
2018-12-31T03:38:59.805Z,3.03
2018-12-31T03:41:31.115Z,4.00
2018-12-31T03:44:02.294Z,3.57
2018-12-31T03:46:33.378Z,3.47
2018-12-31T03:49:04.439Z,3.90
2018-12-31T03:51:35.504Z,3.67
2018-12-31T03:54:06.839Z,3.93
2018-12-31T03:56:38.019Z,3.90
2018-12-31T03:59:09.122Z,3.20
2018-12-31T04:01:40.163Z,3.93
2018-12-31T04:04:11.260Z,3.37
2018-12-31T04:06:42.316Z,3.17
2018-12-31T04:09:13.427Z,3.57
2018-12-31T04:11:44.461Z,4.43
2018-12-31T04:14:15.575Z,4.70
2018-12-31T04:16:46.655Z,5.60
2018-12-31T04:19:17.772Z,5.67
2018-12-31T04:21:48.849Z,5.13
2018-12-31T04:24:19.981Z,5.80
2018-12-31T04:26:51.186Z,5.20
2018-12-31T04:29:22.254Z,5.07
2018-12-31T04:31:53.431Z,6.43
2018-12-31T04:34:24.512Z,5.80
2018-12-31T04:36:55.626Z,6.53
2018-12-31T04:39:26.789Z,5.83
2018-12-31T04:41:57.906Z,5.70
2018-12-31T04:44:28.977Z,5.13
2018-12-31T04:47:00.272Z,5.47
2018-12-31T04:49:31.524Z,4.83
2018-12-31T04:52:02.695Z,5.27
2018-12-31T04:54:33.810Z,4.50
2018-12-31T04:57:05.093Z,5.17
2018-12-31T04:59:36.227Z,5.07
2018-12-31T05:02:07.373Z,4.90
2018-12-31T05:04:38.517Z,5.53
2018-12-31T05:07:09.615Z,5.37
2018-12-31T05:09:40.883Z,6.33
2018-12-31T05:12:11.914Z,5.43
2018-12-31T05:14:43.035Z,5.50
2018-12-31T05:17:14.121Z,5.83
2018-12-31T05:19:45.315Z,5.17
2018-12-31T05:22:16.498Z,5.60
2018-12-31T05:24:47.641Z,5.47
2018-12-31T05:27:18.708Z,6.60
2018-12-31T05:29:49.780Z,5.73
2018-12-31T05:32:20.845Z,6.43
2018-12-31T05:34:51.909Z,6.53
2018-12-31T05:37:23.004Z,6.60
2018-12-31T05:39:54.102Z,5.73
2018-12-31T05:42:25.166Z,6.00
2018-12-31T05:44:56.216Z,7.20
2018-12-31T05:47:27.367Z,5.83
2018-12-31T05:49:58.450Z,6.50
2018-12-31T05:52:29.567Z,6.70
2018-12-31T05:55:00.640Z,6.30
2018-12-31T05:57:31.740Z,5.63
2018-12-31T06:00:02.918Z,5.77
2018-12-31T06:02:33.964Z,5.30
2018-12-31T06:05:05.184Z,5.80
2018-12-31T06:07:36.352Z,5.80
2018-12-31T06:10:07.494Z,5.13
2018-12-31T06:12:38.583Z,6.03
2018-12-31T06:15:09.723Z,7.50
2018-12-31T06:17:40.775Z,6.03
2018-12-31T06:20:11.846Z,6.60
2018-12-31T06:22:42.915Z,6.63
2018-12-31T06:25:14.021Z,6.93
2018-12-31T06:27:45.328Z,7.47
2018-12-31T06:30:16.395Z,6.90
2018-12-31T06:32:47.554Z,6.23
2018-12-31T06:35:18.707Z,6.23
2018-12-31T06:37:49.852Z,6.27
2018-12-31T06:40:21.046Z,6.03
2018-12-31T06:42:52.130Z,5.27
2018-12-31T06:45:23.367Z,6.37
2018-12-31T06:47:54.451Z,5.53
2018-12-31T06:50:25.630Z,5.87
2018-12-31T06:52:57.638Z,5.40
2018-12-31T06:55:28.909Z,5.00
2018-12-31T06:58:00.180Z,5.97
2018-12-31T07:00:31.586Z,4.67
2018-12-31T07:03:03.646Z,4.63
2018-12-31T07:05:34.841Z,4.30
2018-12-31T07:08:05.947Z,4.47
2018-12-31T07:10:37.217Z,5.13
2018-12-31T07:13:08.379Z,3.77
2018-12-31T07:15:39.645Z,4.93
2018-12-31T07:18:10.751Z,4.53
2018-12-31T07:20:41.948Z,5.47
2018-12-31T07:23:13.130Z,3.93
2018-12-31T07:25:44.576Z,4.80
2018-12-31T07:28:15.749Z,4.57
2018-12-31T07:30:47.105Z,4.93
2018-12-31T07:33:21.176Z,5.43
2018-12-31T07:35:52.304Z,6.20
2018-12-31T07:38:23.373Z,6.87
2018-12-31T07:40:54.523Z,6.63
2018-12-31T07:43:25.637Z,6.67
2018-12-31T07:45:56.829Z,5.93
2018-12-31T07:48:27.888Z,7.33
2018-12-31T07:50:59.056Z,7.97
2018-12-31T07:53:30.198Z,8.20
2018-12-31T07:56:01.213Z,6.43
2018-12-31T07:58:32.367Z,6.77
2018-12-31T08:01:03.597Z,5.73
2018-12-31T08:03:34.683Z,7.03
2018-12-31T08:06:06.353Z,6.67
2018-12-31T08:08:37.495Z,6.23
2018-12-31T08:11:08.659Z,6.80
2018-12-31T08:13:39.745Z,7.90
2018-12-31T08:16:10.924Z,8.57
2018-12-31T08:18:42.091Z,9.90
2018-12-31T08:21:13.863Z,9.60
2018-12-31T08:23:45.218Z,9.93
2018-12-31T08:26:16.389Z,9.53
2018-12-31T08:28:47.647Z,9.90
2018-12-31T08:31:23.403Z,9.23
2018-12-31T08:33:55.674Z,10.93
2018-12-31T08:36:26.814Z,8.63
2018-12-31T08:38:59.171Z,7.90
2018-12-31T08:41:31.668Z,8.87
2018-12-31T08:44:02.996Z,8.30
2018-12-31T08:46:34.249Z,8.27
2018-12-31T08:49:05.353Z,8.23
2018-12-31T08:51:36.644Z,9.27
2018-12-31T08:54:07.828Z,8.77
2018-12-31T08:56:40.171Z,9.93
2018-12-31T08:59:14.351Z,9.43
2018-12-31T09:01:46.050Z,8.87
2018-12-31T09:04:17.356Z,9.00
2018-12-31T09:06:48.681Z,10.17
2018-12-31T09:09:20.010Z,9.00
2018-12-31T09:11:52.271Z,8.83
2018-12-31T09:14:23.557Z,8.50
2018-12-31T09:16:54.860Z,8.60
2018-12-31T09:19:26.321Z,8.30
2018-12-31T09:21:57.585Z,8.23
2018-12-31T09:24:28.786Z,8.77
2018-12-31T09:27:00.002Z,8.13
2018-12-31T09:29:31.263Z,8.43
2018-12-31T09:32:02.637Z,8.30
2018-12-31T09:34:33.895Z,10.03
2018-12-31T09:37:05.308Z,9.93
2018-12-31T09:39:37.114Z,9.93
2018-12-31T09:42:08.596Z,9.57
2018-12-31T09:44:39.719Z,9.10
2018-12-31T09:47:10.894Z,10.23
2018-12-31T09:49:42.203Z,10.03
2018-12-31T09:52:13.422Z,9.50
2018-12-31T09:54:44.638Z,8.40
2018-12-31T09:57:16.016Z,6.53
2018-12-31T09:59:47.530Z,6.37
2018-12-31T10:02:18.693Z,6.07
2018-12-31T10:04:49.859Z,6.40
2018-12-31T10:07:20.969Z,5.87
2018-12-31T10:09:52.367Z,5.67
2018-12-31T10:12:23.574Z,5.50
2018-12-31T10:14:54.707Z,7.10
2018-12-31T10:17:25.911Z,6.80
2018-12-31T10:19:57.134Z,6.83
2018-12-31T10:22:28.261Z,6.27
2018-12-31T10:24:59.411Z,6.57
2018-12-31T10:27:30.686Z,6.53
2018-12-31T10:30:01.999Z,6.77
2018-12-31T10:32:33.147Z,6.83
2018-12-31T10:35:10.239Z,9.67
2018-12-31T10:37:41.514Z,10.17
2018-12-31T10:40:12.638Z,8.60
2018-12-31T10:42:43.956Z,7.67
2018-12-31T10:45:15.062Z,6.83
2018-12-31T10:47:46.252Z,6.37
2018-12-31T10:50:17.460Z,8.90
2018-12-31T10:52:48.713Z,10.03
2018-12-31T10:55:19.884Z,9.03
2018-12-31T10:57:51.075Z,9.03
2018-12-31T11:00:22.256Z,9.03
2018-12-31T11:02:54.574Z,10.73
2018-12-31T11:05:25.702Z,9.63
2018-12-31T11:07:57.139Z,9.47
2018-12-31T11:10:28.264Z,9.03
2018-12-31T11:12:59.437Z,9.33
2018-12-31T11:15:30.570Z,8.77
2018-12-31T11:18:01.826Z,9.20
2018-12-31T11:20:33.082Z,9.03
2018-12-31T11:23:04.327Z,9.73
2018-12-31T11:25:35.469Z,9.63
2018-12-31T11:28:06.733Z,9.37
2018-12-31T11:30:37.889Z,11.03
2018-12-31T11:33:09.060Z,9.70
2018-12-31T11:35:40.315Z,10.30
2018-12-31T11:38:11.471Z,9.63
2018-12-31T11:40:42.645Z,8.97
2018-12-31T11:43:13.957Z,8.40
2018-12-31T11:45:51.114Z,9.47
2018-12-31T11:48:22.439Z,9.37
2018-12-31T11:50:53.662Z,9.17
2018-12-31T11:53:24.844Z,12.17
2018-12-31T11:55:56.111Z,8.93
2018-12-31T11:58:27.351Z,8.63
2018-12-31T12:00:58.514Z,13.70
2018-12-31T12:03:29.716Z,8.27
2018-12-31T12:06:00.909Z,9.33
2018-12-31T12:08:32.047Z,8.80
2018-12-31T12:11:03.170Z,22.33
2018-12-31T12:13:34.305Z,13.70
2018-12-31T12:16:05.563Z,15.00
2018-12-31T12:18:36.688Z,37.63
2018-12-31T12:21:07.867Z,11.27
2018-12-31T12:23:39.480Z,9.67
2018-12-31T12:26:10.643Z,9.73
2018-12-31T12:28:41.943Z,10.70
2018-12-31T12:31:16.411Z,9.17
2018-12-31T12:33:48.776Z,9.70
2018-12-31T12:36:20.056Z,11.27
2018-12-31T12:38:51.206Z,10.83
2018-12-31T12:41:22.403Z,12.77
2018-12-31T12:43:55.801Z,9.80
2018-12-31T12:46:26.915Z,10.13
2018-12-31T12:48:58.135Z,9.50
2018-12-31T12:51:31.018Z,10.80
2018-12-31T12:54:02.502Z,14.50
2018-12-31T12:56:33.714Z,11.43
2018-12-31T12:59:04.923Z,11.67
2018-12-31T13:01:36.211Z,10.30
2018-12-31T13:04:07.397Z,9.53
2018-12-31T13:06:38.650Z,9.60
2018-12-31T13:09:09.723Z,9.37
2018-12-31T13:11:40.999Z,9.20
2018-12-31T13:14:12.321Z,10.40
2018-12-31T13:16:44.042Z,9.73
2018-12-31T13:19:15.188Z,9.03
2018-12-31T13:21:46.319Z,9.87
2018-12-31T13:24:18.904Z,10.93
2018-12-31T13:26:50.575Z,11.37
2018-12-31T13:29:22.780Z,11.17
2018-12-31T13:31:53.974Z,11.77
2018-12-31T13:34:25.082Z,10.90
2018-12-31T13:37:05.453Z,10.53
2018-12-31T13:39:36.727Z,11.93
2018-12-31T13:42:08.344Z,11.50
2018-12-31T13:44:39.666Z,9.53
2018-12-31T13:47:11.093Z,9.60
2018-12-31T13:49:42.361Z,11.17
2018-12-31T13:52:13.509Z,9.47
2018-12-31T13:54:44.579Z,9.30
2018-12-31T13:57:15.764Z,10.63
2018-12-31T13:59:46.988Z,9.80
2018-12-31T14:02:18.160Z,10.20
2018-12-31T14:04:49.239Z,9.77
2018-12-31T14:07:20.589Z,10.03
2018-12-31T14:09:51.883Z,10.67
2018-12-31T14:12:23.081Z,11.87
2018-12-31T14:14:54.360Z,11.10
2018-12-31T14:17:25.784Z,9.37
2018-12-31T14:19:58.144Z,8.63
2018-12-31T14:22:30.162Z,9.60
2018-12-31T14:25:02.658Z,9.07
2018-12-31T14:27:34.017Z,11.07
2018-12-31T14:30:06.038Z,10.07
2018-12-31T14:32:37.198Z,10.77
2018-12-31T14:35:08.727Z,11.10
2018-12-31T14:37:41.223Z,12.23
2018-12-31T14:40:12.627Z,13.37
2018-12-31T14:42:43.763Z,16.43
2018-12-31T14:45:15.113Z,14.97
2018-12-31T14:47:50.705Z,15.27
2018-12-31T14:54:15.389Z,15.15
2018-12-31T14:56:46.189Z,12.07
2018-12-31T14:59:17.317Z,11.80
2018-12-31T15:02:00.892Z,11.73
2018-12-31T15:04:32.177Z,11.37
2018-12-31T15:07:03.354Z,10.67
2018-12-31T15:09:34.569Z,12.87
2018-12-31T15:12:05.662Z,11.53
2018-12-31T15:14:36.975Z,12.73
2018-12-31T15:17:08.154Z,15.50
2018-12-31T15:19:39.758Z,13.70
2018-12-31T15:22:10.864Z,13.93
2018-12-31T15:24:42.058Z,12.77
2018-12-31T15:27:13.526Z,13.60
2018-12-31T15:29:44.797Z,19.30
2018-12-31T15:32:17.192Z,17.67
2018-12-31T15:34:48.346Z,17.50
2018-12-31T15:37:19.608Z,20.77
2018-12-31T15:39:50.764Z,19.87
2018-12-31T15:42:21.967Z,18.73
2018-12-31T15:44:56.269Z,18.37
2018-12-31T15:47:27.897Z,16.77
2018-12-31T15:49:59.182Z,18.07
2018-12-31T15:52:30.388Z,20.73
2018-12-31T15:55:01.630Z,25.87
2018-12-31T15:57:32.859Z,24.20
2018-12-31T16:00:04.538Z,25.93
2018-12-31T16:02:36.192Z,26.50
2018-12-31T16:05:08.032Z,24.30
2018-12-31T16:08:06.254Z,25.87
2018-12-31T16:10:38.328Z,24.90
2018-12-31T16:13:10.444Z,24.37
2018-12-31T16:15:41.886Z,24.17
2018-12-31T16:18:13.104Z,22.90
2018-12-31T16:20:44.387Z,21.53
2018-12-31T16:23:15.676Z,21.67
2018-12-31T16:25:46.909Z,22.20
2018-12-31T16:28:18.293Z,21.73
2018-12-31T16:30:50.219Z,22.80
2018-12-31T16:33:21.379Z,21.77
2018-12-31T16:35:52.668Z,20.63
2018-12-31T16:38:23.841Z,22.83
2018-12-31T16:40:55.055Z,26.43
2018-12-31T16:43:26.286Z,25.43
2018-12-31T16:45:57.550Z,25.83
2018-12-31T16:48:28.670Z,24.23
2018-12-31T16:51:00.002Z,23.67
2018-12-31T16:53:34.582Z,31.23
2018-12-31T16:56:05.739Z,31.73
2018-12-31T16:58:37.037Z,32.50
2018-12-31T17:01:09.556Z,39.30
2018-12-31T17:03:40.898Z,39.07
2018-12-31T17:06:12.202Z,33.23
2018-12-31T17:08:43.491Z,30.60
2018-12-31T17:11:14.803Z,28.37
2018-12-31T17:13:46.047Z,26.23
2018-12-31T17:16:17.480Z,27.80
2018-12-31T17:18:48.818Z,26.70
2018-12-31T17:21:19.944Z,25.80
2018-12-31T17:24:01.214Z,24.37
2018-12-31T17:26:32.367Z,26.17
2018-12-31T17:29:03.601Z,29.27
2018-12-31T17:31:34.980Z,26.80
2018-12-31T17:34:06.300Z,27.30
2018-12-31T17:36:37.681Z,24.87
2018-12-31T17:39:10.914Z,33.47
2018-12-31T17:41:42.145Z,28.77
2018-12-31T17:44:13.405Z,29.13
2018-12-31T17:46:45.418Z,28.93
2018-12-31T17:49:16.728Z,31.03
2018-12-31T17:51:55.594Z,29.63
2018-12-31T17:54:21.821Z,27.83
2018-12-31T17:56:53.246Z,25.37
2018-12-31T17:59:24.412Z,25.83
2018-12-31T18:01:56.948Z,29.37
2018-12-31T18:04:28.187Z,34.10
2018-12-31T18:07:00.986Z,37.50
2018-12-31T18:09:32.242Z,37.67
2018-12-31T18:12:03.574Z,47.17
2018-12-31T18:14:34.793Z,56.67
2018-12-31T18:17:06.025Z,52.13
2018-12-31T18:19:37.342Z,52.50
2018-12-31T18:22:08.569Z,50.03
2018-12-31T18:24:39.843Z,50.93
2018-12-31T18:27:11.133Z,48.40
2018-12-31T18:29:44.705Z,51.20
2018-12-31T18:32:15.940Z,52.30
2018-12-31T18:34:51.239Z,49.33
2018-12-31T18:37:30.065Z,50.60
2018-12-31T18:40:10.665Z,50.77
2018-12-31T18:42:45.028Z,47.80
2018-12-31T18:45:16.213Z,167.53
2018-12-31T18:47:50.572Z,111.10
2018-12-31T18:50:21.909Z,73.60
2018-12-31T18:52:53.128Z,54.23
2018-12-31T18:55:24.437Z,42.90
2018-12-31T18:57:55.676Z,40.60
2018-12-31T19:00:26.979Z,38.67
2018-12-31T19:02:58.375Z,42.33
2018-12-31T19:05:29.595Z,38.60
2018-12-31T19:08:01.409Z,39.40
2018-12-31T19:10:32.795Z,42.20
2018-12-31T19:13:04.199Z,47.90
2018-12-31T19:15:35.488Z,49.93
2018-12-31T19:18:09.891Z,43.30
2018-12-31T19:20:41.873Z,44.10
2018-12-31T19:23:18.177Z,43.30
2018-12-31T19:25:51.076Z,44.13
2018-12-31T19:28:22.542Z,46.63
2018-12-31T19:30:54.677Z,47.97
2018-12-31T19:33:26.637Z,50.37
2018-12-31T19:35:58.530Z,51.30
2018-12-31T19:38:29.961Z,54.80
2018-12-31T19:41:01.829Z,51.43
2018-12-31T19:43:33.520Z,55.83
2018-12-31T19:46:04.847Z,52.73
2018-12-31T19:48:39.157Z,54.30
2018-12-31T19:51:10.695Z,47.23
2018-12-31T19:53:44.754Z,47.47
2018-12-31T19:56:17.174Z,42.77
2018-12-31T19:58:48.590Z,39.23
2018-12-31T20:01:24.005Z,39.97
2018-12-31T20:03:55.199Z,36.87
2018-12-31T20:06:26.684Z,35.77
2018-12-31T20:08:57.956Z,38.47
2018-12-31T20:11:29.499Z,36.70
2018-12-31T20:14:00.904Z,38.23
2018-12-31T20:16:32.611Z,39.37
2018-12-31T20:19:03.907Z,40.07
2018-12-31T20:21:35.388Z,39.20
2018-12-31T20:24:06.898Z,37.83
2018-12-31T20:26:40.197Z,39.60
2018-12-31T20:29:12.433Z,36.63
2018-12-31T20:31:43.769Z,37.43
2018-12-31T20:34:15.042Z,40.83
2018-12-31T20:36:46.363Z,42.50
2018-12-31T20:39:17.620Z,41.30
2018-12-31T20:41:49.139Z,43.30
2018-12-31T20:44:22.396Z,44.20
2018-12-31T20:46:53.632Z,56.83
2018-12-31T20:49:24.838Z,60.20
2018-12-31T20:51:56.082Z,51.30
2018-12-31T20:54:27.452Z,46.53
2018-12-31T20:56:58.916Z,45.17
2018-12-31T20:59:30.225Z,53.03
2018-12-31T21:02:01.607Z,50.47
2018-12-31T21:04:33.080Z,47.67
2018-12-31T21:07:05.457Z,46.87
2018-12-31T21:09:37.954Z,45.23
2018-12-31T21:12:09.237Z,43.80
2018-12-31T21:14:40.417Z,46.43
2018-12-31T21:17:11.962Z,43.67
2018-12-31T21:19:43.130Z,48.70
2018-12-31T21:22:14.492Z,48.80
2018-12-31T21:24:45.613Z,44.97
2018-12-31T21:27:16.816Z,47.43
2018-12-31T21:29:48.269Z,44.33
2018-12-31T21:32:20.601Z,47.20
2018-12-31T21:34:52.141Z,44.83
2018-12-31T21:37:23.495Z,45.60
2018-12-31T21:39:55.005Z,45.70
2018-12-31T21:42:26.339Z,44.53
2018-12-31T21:44:57.558Z,46.03
2018-12-31T21:47:28.922Z,46.47
2018-12-31T21:50:00.264Z,44.43
2018-12-31T21:52:33.528Z,41.77
2018-12-31T21:55:05.199Z,43.17
2018-12-31T21:57:36.679Z,40.30
2018-12-31T22:00:08.971Z,40.70
2018-12-31T22:02:40.713Z,41.73
2018-12-31T22:05:11.999Z,39.90
2018-12-31T22:07:43.237Z,41.97
2018-12-31T22:10:14.477Z,41.53
2018-12-31T22:12:45.685Z,40.47
2018-12-31T22:15:17.017Z,44.20
2018-12-31T22:17:51.056Z,44.40
2018-12-31T22:20:22.279Z,44.20
2018-12-31T22:22:53.526Z,44.50
2018-12-31T22:25:24.765Z,46.03
2018-12-31T22:27:56.279Z,44.40
2018-12-31T22:30:27.434Z,44.47
2018-12-31T22:32:58.687Z,44.13
2018-12-31T22:35:30.123Z,43.10
2018-12-31T22:38:01.584Z,41.60
2018-12-31T22:40:32.786Z,43.53
2018-12-31T22:43:06.269Z,42.23
2018-12-31T22:45:39.823Z,41.60
2018-12-31T22:48:11.355Z,43.93
2018-12-31T22:50:42.692Z,43.17
2018-12-31T22:53:13.897Z,41.70
2018-12-31T22:55:45.137Z,42.83
2018-12-31T22:58:16.285Z,43.60
2018-12-31T23:00:47.857Z,41.10
2018-12-31T23:03:19.354Z,39.87
2018-12-31T23:05:51.091Z,40.30
2018-12-31T23:08:22.384Z,42.63
2018-12-31T23:10:54.745Z,55.03
2018-12-31T23:13:30.064Z,51.77
2018-12-31T23:16:02.200Z,53.67
2018-12-31T23:18:39.949Z,50.03
2018-12-31T23:21:12.872Z,49.00
2018-12-31T23:23:44.473Z,56.80
2018-12-31T23:26:15.969Z,56.63
2018-12-31T23:28:52.541Z,55.27
2018-12-31T23:31:19.985Z,53.63
2018-12-31T23:33:51.363Z,68.93
2018-12-31T23:36:23.006Z,65.53
2018-12-31T23:38:54.731Z,67.00
2018-12-31T23:41:25.946Z,63.57
2018-12-31T23:43:57.211Z,72.20
2018-12-31T23:46:28.415Z,78.10
2018-12-31T23:49:00.172Z,88.83
2018-12-31T23:51:33.051Z,85.57
2018-12-31T23:54:04.446Z,77.97
2018-12-31T23:56:35.807Z,87.97
2018-12-31T23:59:07.124Z,81.53
